sensor_id;sensor_type;location;lat;lon;timestamp;pressure;altitude;pressure_sealevel;temperature;humidity
55217;BME280;41086;46.736;15.666;2022-11-15T00:00:10;98661.09;;;6.85;100.00
55217;BME280;41086;46.736;15.666;2022-11-15T00:02:55;98661.09;;;6.85;100.00
55217;BME280;41086;46.736;15.666;2022-11-15T00:05:41;98644.63;;;6.81;100.00
55217;BME280;41086;46.736;15.666;2022-11-15T00:08:29;98658.31;;;6.88;100.00
55217;BME280;41086;46.736;15.666;2022-11-15T00:11:15;98667.00;;;6.90;100.00
55217;BME280;41086;46.736;15.666;2022-11-15T00:14:01;98666.06;;;6.91;100.00
55217;BME280;41086;46.736;15.666;2022-11-15T00:16:48;98666.91;;;6.92;100.00
55217;BME280;41086;46.736;15.666;2022-11-15T00:19:34;98673.13;;;6.91;100.00
55217;BME280;41086;46.736;15.666;2022-11-15T00:22:20;98669.53;;;6.92;100.00
55217;BME280;41086;46.736;15.666;2022-11-15T00:25:05;98677.38;;;6.93;100.00
55217;BME280;41086;46.736;15.666;2022-11-15T00:27:54;98659.72;;;6.95;100.00
55217;BME280;41086;46.736;15.666;2022-11-15T00:30:39;98663.19;;;6.96;100.00
55217;BME280;41086;46.736;15.666;2022-11-15T00:33:24;98663.09;;;6.97;100.00
55217;BME280;41086;46.736;15.666;2022-11-15T00:36:10;98649.19;;;6.95;100.00
55217;BME280;41086;46.736;15.666;2022-11-15T00:38:55;98655.97;;;6.99;100.00
55217;BME280;41086;46.736;15.666;2022-11-15T00:41:41;98648.84;;;7.01;100.00
55217;BME280;41086;46.736;15.666;2022-11-15T00:44:26;98646.28;;;7.00;100.00
55217;BME280;41086;46.736;15.666;2022-11-15T00:47:13;98637.63;;;6.98;100.00
55217;BME280;41086;46.736;15.666;2022-11-15T00:49:58;98632.34;;;6.98;100.00
55217;BME280;41086;46.736;15.666;2022-11-15T00:52:44;98637.31;;;7.04;100.00
55217;BME280;41086;46.736;15.666;2022-11-15T00:55:29;98637.38;;;7.02;100.00
55217;BME280;41086;46.736;15.666;2022-11-15T00:58:14;98630.47;;;7.00;100.00
55217;BME280;41086;46.736;15.666;2022-11-15T01:01:11;98627.16;;;6.96;100.00
55217;BME280;41086;46.736;15.666;2022-11-15T01:03:57;98633.59;;;6.91;100.00
55217;BME280;41086;46.736;15.666;2022-11-15T01:06:45;98627.78;;;6.84;100.00
55217;BME280;41086;46.736;15.666;2022-11-15T01:09:31;98614.69;;;6.82;100.00
55217;BME280;41086;46.736;15.666;2022-11-15T01:12:16;98593.66;;;6.65;100.00
55217;BME280;41086;46.736;15.666;2022-11-15T01:15:02;98621.91;;;6.79;100.00
55217;BME280;41086;46.736;15.666;2022-11-15T01:17:47;98626.31;;;6.78;100.00
55217;BME280;41086;46.736;15.666;2022-11-15T01:20:33;98626.31;;;6.78;100.00
55217;BME280;41086;46.736;15.666;2022-11-15T01:23:18;98622.91;;;6.76;100.00
55217;BME280;41086;46.736;15.666;2022-11-15T01:26:06;98618.41;;;6.78;100.00
55217;BME280;41086;46.736;15.666;2022-11-15T01:28:52;98617.66;;;6.76;100.00
55217;BME280;41086;46.736;15.666;2022-11-15T01:31:37;98622.81;;;6.78;100.00
55217;BME280;41086;46.736;15.666;2022-11-15T01:34:23;98618.34;;;6.80;100.00
55217;BME280;41086;46.736;15.666;2022-11-15T01:37:08;98614.00;;;6.79;100.00
55217;BME280;41086;46.736;15.666;2022-11-15T01:39:53;98616.66;;;6.79;100.00
55217;BME280;41086;46.736;15.666;2022-11-15T01:42:38;98614.06;;;6.77;100.00
55217;BME280;41086;46.736;15.666;2022-11-15T01:45:24;98614.91;;;6.78;100.00
55217;BME280;41086;46.736;15.666;2022-11-15T01:48:10;98614.00;;;6.79;100.00
55217;BME280;41086;46.736;15.666;2022-11-15T01:50:56;98604.38;;;6.78;100.00
55217;BME280;41086;46.736;15.666;2022-11-15T01:53:45;98615.94;;;6.75;100.00
55217;BME280;41086;46.736;15.666;2022-11-15T01:56:33;98610.66;;;6.75;100.00
55217;BME280;41086;46.736;15.666;2022-11-15T01:59:21;98598.59;;;6.71;100.00
55217;BME280;41086;46.736;15.666;2022-11-15T02:02:08;98602.75;;;6.75;100.00
55217;BME280;41086;46.736;15.666;2022-11-15T02:04:54;98601.91;;;6.75;100.00
55217;BME280;41086;46.736;15.666;2022-11-15T02:07:40;98596.97;;;6.69;100.00
55217;BME280;41086;46.736;15.666;2022-11-15T02:10:25;98599.44;;;6.72;100.00
55217;BME280;41086;46.736;15.666;2022-11-15T02:13:10;98601.13;;;6.73;100.00
55217;BME280;41086;46.736;15.666;2022-11-15T02:17:02;98593.22;;;6.73;100.00
55217;BME280;41086;46.736;15.666;2022-11-15T02:22:36;98589.91;;;6.69;100.00
55217;BME280;41086;46.736;15.666;2022-11-15T02:29:07;98583.69;;;6.70;100.00
55217;BME280;41086;46.736;15.666;2022-11-15T02:32:19;98583.00;;;6.66;100.00
55217;BME280;41086;46.736;15.666;2022-11-15T02:37:59;98568.31;;;6.62;100.00
55217;BME280;41086;46.736;15.666;2022-11-15T02:41:17;98568.06;;;6.67;100.00
55217;BME280;41086;46.736;15.666;2022-11-15T02:44:12;98568.84;;;6.69;100.00
55217;BME280;41086;46.736;15.666;2022-11-15T02:47:04;98569.69;;;6.70;100.00
55217;BME280;41086;46.736;15.666;2022-11-15T02:50:09;98574.09;;;6.69;100.00
55217;BME280;41086;46.736;15.666;2022-11-15T02:52:55;98571.47;;;6.69;100.00
55217;BME280;41086;46.736;15.666;2022-11-15T02:55:44;98565.41;;;6.67;100.00
55217;BME280;41086;46.736;15.666;2022-11-15T02:58:53;98568.91;;;6.68;100.00
55217;BME280;41086;46.736;15.666;2022-11-15T03:07:30;98556.84;;;6.63;100.00
55217;BME280;41086;46.736;15.666;2022-11-15T03:10:31;98556.84;;;6.63;100.00
55217;BME280;41086;46.736;15.666;2022-11-15T03:13:39;98562.16;;;6.62;100.00
55217;BME280;41086;46.736;15.666;2022-11-15T03:16:46;98557.91;;;6.59;100.00
55217;BME280;41086;46.736;15.666;2022-11-15T03:19:40;98558.16;;;6.55;100.00
55217;BME280;41086;46.736;15.666;2022-11-15T03:22:30;98549.41;;;6.54;100.00
55217;BME280;41086;46.736;15.666;2022-11-15T03:25:21;98542.38;;;6.55;100.00
55217;BME280;41086;46.736;15.666;2022-11-15T03:28:10;98534.47;;;6.55;100.00
55217;BME280;41086;46.736;15.666;2022-11-15T03:30:58;98535.31;;;6.55;100.00
55217;BME280;41086;46.736;15.666;2022-11-15T03:33:45;98536.16;;;6.56;100.00
55217;BME280;41086;46.736;15.666;2022-11-15T03:36:31;98529.09;;;6.56;100.00
55217;BME280;41086;46.736;15.666;2022-11-15T03:39:18;98537.16;;;6.53;100.00
55217;BME280;41086;46.736;15.666;2022-11-15T03:48:11;98527.47;;;6.54;100.00
55217;BME280;41086;46.736;15.666;2022-11-15T03:50:58;98524.22;;;6.49;100.00
55217;BME280;41086;46.736;15.666;2022-11-15T03:53:44;98541.75;;;6.50;100.00
55217;BME280;41086;46.736;15.666;2022-11-15T03:56:30;98540.13;;;6.47;100.00
55217;BME280;41086;46.736;15.666;2022-11-15T03:59:16;98530.38;;;6.49;100.00
55217;BME280;41086;46.736;15.666;2022-11-15T04:02:01;98516.34;;;6.49;100.00
55217;BME280;41086;46.736;15.666;2022-11-15T04:04:46;98514.56;;;6.49;100.00
55217;BME280;41086;46.736;15.666;2022-11-15T04:07:32;98522.16;;;6.55;100.00
55217;BME280;41086;46.736;15.666;2022-11-15T04:10:18;98510.69;;;6.56;100.00
55217;BME280;41086;46.736;15.666;2022-11-15T04:13:03;98505.25;;;6.59;100.00
55217;BME280;41086;46.736;15.666;2022-11-15T04:15:48;98491.72;;;6.50;100.00
55217;BME280;41086;46.736;15.666;2022-11-15T04:18:34;98503.50;;;6.60;100.00
55217;BME280;41086;46.736;15.666;2022-11-15T04:21:19;98500.91;;;6.58;100.00
55217;BME280;41086;46.736;15.666;2022-11-15T04:24:22;98502.72;;;6.58;100.00
55217;BME280;41086;46.736;15.666;2022-11-15T04:27:08;98503.78;;;6.54;100.00
55217;BME280;41086;46.736;15.666;2022-11-15T04:29:53;98495.13;;;6.52;100.00
55217;BME280;41086;46.736;15.666;2022-11-15T04:32:39;98502.25;;;6.50;100.00
55217;BME280;41086;46.736;15.666;2022-11-15T04:35:24;98500.63;;;6.47;100.00
55217;BME280;41086;46.736;15.666;2022-11-15T04:38:10;98496.31;;;6.46;100.00
55217;BME280;41086;46.736;15.666;2022-11-15T04:40:56;98486.78;;;6.43;100.00
55217;BME280;41086;46.736;15.666;2022-11-15T04:43:41;98487.63;;;6.44;100.00
55217;BME280;41086;46.736;15.666;2022-11-15T04:46:26;98473.69;;;6.42;100.00
55217;BME280;41086;46.736;15.666;2022-11-15T04:49:12;98464.78;;;6.44;100.00
55217;BME280;41086;46.736;15.666;2022-11-15T04:51:58;98471.00;;;6.43;100.00
55217;BME280;41086;46.736;15.666;2022-11-15T04:54:43;98474.53;;;6.42;100.00
55217;BME280;41086;46.736;15.666;2022-11-15T04:57:29;98467.75;;;6.38;100.00
55217;BME280;41086;46.736;15.666;2022-11-15T05:00:16;98472.44;;;6.32;100.00
55217;BME280;41086;46.736;15.666;2022-11-15T05:03:02;98476.19;;;6.28;100.00
55217;BME280;41086;46.736;15.666;2022-11-15T05:06:06;98468.53;;;6.23;100.00
55217;BME280;41086;46.736;15.666;2022-11-15T05:08:52;98470.22;;;6.24;100.00
55217;BME280;41086;46.736;15.666;2022-11-15T05:11:38;98468.59;;;6.21;100.00
55217;BME280;41086;46.736;15.666;2022-11-15T05:14:23;98476.34;;;6.25;100.00
55217;BME280;41086;46.736;15.666;2022-11-15T05:17:08;98466.66;;;6.25;100.00
55217;BME280;41086;46.736;15.666;2022-11-15T05:19:54;98462.25;;;6.26;100.00
55217;BME280;41086;46.736;15.666;2022-11-15T05:22:39;98464.88;;;6.26;100.00
55217;BME280;41086;46.736;15.666;2022-11-15T05:25:25;98462.56;;;6.19;100.00
55217;BME280;41086;46.736;15.666;2022-11-15T05:28:11;98462.31;;;6.24;100.00
55217;BME280;41086;46.736;15.666;2022-11-15T05:31:07;98458.00;;;6.23;100.00
55217;BME280;41086;46.736;15.666;2022-11-15T05:33:54;98449.94;;;6.26;100.00
55217;BME280;41086;46.736;15.666;2022-11-15T05:36:43;98453.34;;;6.28;100.00
55217;BME280;41086;46.736;15.666;2022-11-15T05:39:32;98450.78;;;6.27;100.00
55217;BME280;41086;46.736;15.666;2022-11-15T05:42:18;98453.34;;;6.28;100.00
55217;BME280;41086;46.736;15.666;2022-11-15T05:45:07;98460.47;;;6.26;100.00
55217;BME280;41086;46.736;15.666;2022-11-15T05:47:55;98456.97;;;6.26;100.00
55217;BME280;41086;46.736;15.666;2022-11-15T05:50:45;98451.72;;;6.26;100.00
55217;BME280;41086;46.736;15.666;2022-11-15T05:53:31;98452.50;;;6.28;100.00
55217;BME280;41086;46.736;15.666;2022-11-15T05:56:18;98451.66;;;6.27;100.00
55217;BME280;41086;46.736;15.666;2022-11-15T05:59:04;98459.38;;;6.30;100.00
55217;BME280;41086;46.736;15.666;2022-11-15T06:01:50;98470.81;;;6.29;100.00
55217;BME280;41086;46.736;15.666;2022-11-15T06:04:36;98462.78;;;6.32;100.00
55217;BME280;41086;46.736;15.666;2022-11-15T06:07:21;98456.59;;;6.33;100.00
55217;BME280;41086;46.736;15.666;2022-11-15T06:10:07;98448.69;;;6.33;100.00
55217;BME280;41086;46.736;15.666;2022-11-15T06:13:00;98448.75;;;6.32;100.00
55217;BME280;41086;46.736;15.666;2022-11-15T06:15:47;98453.88;;;6.35;100.00
55217;BME280;41086;46.736;15.666;2022-11-15T06:18:33;98447.75;;;6.34;100.00
55217;BME280;41086;46.736;15.666;2022-11-15T06:21:19;98458.22;;;6.36;100.00
55217;BME280;41086;46.736;15.666;2022-11-15T06:24:05;98466.97;;;6.36;100.00
55217;BME280;41086;46.736;15.666;2022-11-15T06:26:50;98471.22;;;6.39;100.00
55217;BME280;41086;46.736;15.666;2022-11-15T06:29:35;98460.00;;;6.35;100.00
55217;BME280;41086;46.736;15.666;2022-11-15T06:32:20;98470.22;;;6.41;100.00
55217;BME280;41086;46.736;15.666;2022-11-15T06:35:06;98457.81;;;6.43;100.00
55217;BME280;41086;46.736;15.666;2022-11-15T06:37:51;98463.16;;;6.42;100.00
55217;BME280;41086;46.736;15.666;2022-11-15T06:40:37;98472.06;;;6.39;100.00
55217;BME280;41086;46.736;15.666;2022-11-15T06:43:23;98467.91;;;6.35;100.00
55217;BME280;41086;46.736;15.666;2022-11-15T06:46:08;98481.91;;;6.36;100.00
55217;BME280;41086;46.736;15.666;2022-11-15T06:48:54;98480.19;;;6.35;100.00
55217;BME280;41086;46.736;15.666;2022-11-15T06:51:39;98475.94;;;6.32;100.00
55217;BME280;41086;46.736;15.666;2022-11-15T06:54:24;98475.19;;;6.30;100.00
55217;BME280;41086;46.736;15.666;2022-11-15T06:57:10;98465.50;;;6.31;100.00
55217;BME280;41086;46.736;15.666;2022-11-15T06:59:55;98468.91;;;6.33;100.00
55217;BME280;41086;46.736;15.666;2022-11-15T07:02:40;98472.44;;;6.32;100.00
55217;BME280;41086;46.736;15.666;2022-11-15T07:05:26;98474.19;;;6.33;100.00
55217;BME280;41086;46.736;15.666;2022-11-15T07:08:12;98460.75;;;6.37;100.00
55217;BME280;41086;46.736;15.666;2022-11-15T07:11:02;98463.22;;;6.40;100.00
55217;BME280;41086;46.736;15.666;2022-11-15T07:13:48;98458.84;;;6.41;100.00
55217;BME280;41086;46.736;15.666;2022-11-15T07:16:33;98463.78;;;6.47;100.00
55217;BME280;41086;46.736;15.666;2022-11-15T07:19:18;98464.56;;;6.49;100.00
55217;BME280;41086;46.736;15.666;2022-11-15T07:22:04;98467.03;;;6.52;100.00
55217;BME280;41086;46.736;15.666;2022-11-15T07:24:49;98465.91;;;6.56;100.00
55217;BME280;41086;46.736;15.666;2022-11-15T07:27:35;98470.25;;;6.57;100.00
55217;BME280;41086;46.736;15.666;2022-11-15T07:30:20;98468.25;;;6.62;100.00
55217;BME280;41086;46.736;15.666;2022-11-15T07:33:06;98460.94;;;6.68;100.00
55217;BME280;41086;46.736;15.666;2022-11-15T07:35:53;98453.81;;;6.70;100.00
55217;BME280;41086;46.736;15.666;2022-11-15T07:38:38;98455.19;;;6.77;100.00
55217;BME280;41086;46.736;15.666;2022-11-15T07:41:27;98442.94;;;6.76;100.00
55217;BME280;41086;46.736;15.666;2022-11-15T07:44:12;98446.00;;;6.84;100.00
55217;BME280;41086;46.736;15.666;2022-11-15T07:46:57;98447.56;;;6.88;100.00
55217;BME280;41086;46.736;15.666;2022-11-15T07:49:43;98437.84;;;6.88;100.00
55217;BME280;41086;46.736;15.666;2022-11-15T07:52:28;98436.50;;;6.97;100.00
55217;BME280;41086;46.736;15.666;2022-11-15T07:55:13;98443.38;;;7.00;100.00
55217;BME280;41086;46.736;15.666;2022-11-15T07:58:03;98451.28;;;7.00;100.00
55217;BME280;41086;46.736;15.666;2022-11-15T08:00:48;98442.47;;;7.01;100.00
55217;BME280;41086;46.736;15.666;2022-11-15T08:03:34;98450.38;;;7.01;100.00
55217;BME280;41086;46.736;15.666;2022-11-15T08:06:19;98449.44;;;7.02;100.00
55217;BME280;41086;46.736;15.666;2022-11-15T08:09:05;98443.16;;;7.04;100.00
55217;BME280;41086;46.736;15.666;2022-11-15T08:11:51;98436.25;;;7.02;100.00
55217;BME280;41086;46.736;15.666;2022-11-15T08:14:40;98439.44;;;7.08;100.00
55217;BME280;41086;46.736;15.666;2022-11-15T08:17:28;98443.56;;;7.13;100.00
55217;BME280;41086;46.736;15.666;2022-11-15T08:20:17;98436.34;;;7.16;100.00
55217;BME280;41086;46.736;15.666;2022-11-15T08:23:05;98441.44;;;7.19;100.00
55217;BME280;41086;46.736;15.666;2022-11-15T08:25:50;98446.63;;;7.21;100.00
55217;BME280;41086;46.736;15.666;2022-11-15T08:28:38;98440.34;;;7.23;100.00
55217;BME280;41086;46.736;15.666;2022-11-15T08:31:24;98438.47;;;7.25;100.00
55217;BME280;41086;46.736;15.666;2022-11-15T08:34:09;98435.00;;;7.25;100.00
55217;BME280;41086;46.736;15.666;2022-11-15T08:36:54;98432.09;;;7.29;100.00
55217;BME280;41086;46.736;15.666;2022-11-15T08:39:40;98439.75;;;7.34;100.00
55217;BME280;41086;46.736;15.666;2022-11-15T08:42:25;98443.16;;;7.36;100.00
55217;BME280;41086;46.736;15.666;2022-11-15T08:45:12;98436.00;;;7.38;100.00
55217;BME280;41086;46.736;15.666;2022-11-15T08:48:01;98431.50;;;7.40;100.00
55217;BME280;41086;46.736;15.666;2022-11-15T08:50:47;98438.19;;;7.46;100.00
55217;BME280;41086;46.736;15.666;2022-11-15T08:53:33;98432.75;;;7.49;100.00
55217;BME280;41086;46.736;15.666;2022-11-15T08:56:18;98441.53;;;7.49;100.00
55217;BME280;41086;46.736;15.666;2022-11-15T08:59:04;98427.41;;;7.50;100.00
55217;BME280;41086;46.736;15.666;2022-11-15T09:01:49;98439.38;;;7.56;100.00
55217;BME280;41086;46.736;15.666;2022-11-15T09:04:34;98440.22;;;7.57;100.00
55217;BME280;41086;46.736;15.666;2022-11-15T09:07:20;98441.06;;;7.57;100.00
55217;BME280;41086;46.736;15.666;2022-11-15T09:10:05;98442.69;;;7.60;100.00
55217;BME280;41086;46.736;15.666;2022-11-15T09:12:51;98437.41;;;7.60;100.00
55217;BME280;41086;46.736;15.666;2022-11-15T09:15:36;98441.59;;;7.64;100.00
55217;BME280;41086;46.736;15.666;2022-11-15T09:18:21;98440.81;;;7.62;100.00
55217;BME280;41086;46.736;15.666;2022-11-15T09:21:08;98441.78;;;7.61;100.00
55217;BME280;41086;46.736;15.666;2022-11-15T09:23:57;98440.06;;;7.60;100.00
55217;BME280;41086;46.736;15.666;2022-11-15T09:26:46;98429.16;;;7.66;100.00
55217;BME280;41086;46.736;15.666;2022-11-15T09:29:31;98431.53;;;7.70;100.00
55217;BME280;41086;46.736;15.666;2022-11-15T09:32:16;98427.53;;;7.79;100.00
55217;BME280;41086;46.736;15.666;2022-11-15T09:35:01;98431.59;;;7.85;100.00
55217;BME280;41086;46.736;15.666;2022-11-15T09:37:47;98428.78;;;7.88;100.00
55217;BME280;41086;46.736;15.666;2022-11-15T09:40:40;98433.88;;;7.91;100.00
55217;BME280;41086;46.736;15.666;2022-11-15T09:43:30;98436.59;;;7.89;100.00
55217;BME280;41086;46.736;15.666;2022-11-15T09:46:27;98427.94;;;7.87;100.00
55217;BME280;41086;46.736;15.666;2022-11-15T09:49:16;98423.69;;;7.85;100.00
55217;BME280;41086;46.736;15.666;2022-11-15T09:52:07;98420.50;;;7.94;100.00
55217;BME280;41086;46.736;15.666;2022-11-15T09:54:38;98409.38;;;8.03;100.00
55217;BME280;41086;46.736;15.666;2022-11-15T10:00:36;98413.09;;;8.15;100.00
55217;BME280;41086;46.736;15.666;2022-11-15T10:03:28;98414.91;;;8.14;100.00
55217;BME280;41086;46.736;15.666;2022-11-15T10:06:01;98407.63;;;8.18;100.00
55217;BME280;41086;46.736;15.666;2022-11-15T10:11:10;98401.13;;;8.09;100.00
55217;BME280;41086;46.736;15.666;2022-11-15T10:14:05;98382.34;;;8.14;100.00
55217;BME280;41086;46.736;15.666;2022-11-15T10:22:53;98365.50;;;8.31;100.00
55217;BME280;41086;46.736;15.666;2022-11-15T10:25:20;98362.56;;;8.35;100.00
55217;BME280;41086;46.736;15.666;2022-11-15T10:27:54;98356.09;;;8.41;100.00
55217;BME280;41086;46.736;15.666;2022-11-15T10:30:21;98372.94;;;8.38;100.00
55217;BME280;41086;46.736;15.666;2022-11-15T10:32:48;98359.34;;;8.30;100.00
55217;BME280;41086;46.736;15.666;2022-11-15T10:35:27;98361.44;;;8.25;100.00
55217;BME280;41086;46.736;15.666;2022-11-15T10:38:10;98344.72;;;8.25;100.00
55217;BME280;41086;46.736;15.666;2022-11-15T10:40:41;98344.84;;;8.23;100.00
55217;BME280;41086;46.736;15.666;2022-11-15T10:43:15;98348.06;;;8.28;100.00
55217;BME280;41086;46.736;15.666;2022-11-15T10:45:42;98333.63;;;8.34;100.00
55217;BME280;41086;46.736;15.666;2022-11-15T10:50:44;98330.44;;;8.43;100.00
55217;BME280;41086;46.736;15.666;2022-11-15T10:53:32;98327.50;;;8.48;100.00
55217;BME280;41086;46.736;15.666;2022-11-15T10:56:07;98330.16;;;8.48;100.00
55217;BME280;41086;46.736;15.666;2022-11-15T10:58:41;98322.22;;;8.48;100.00
55217;BME280;41086;46.736;15.666;2022-11-15T11:01:20;98319.59;;;8.48;100.00
55217;BME280;41086;46.736;15.666;2022-11-15T11:06:30;98306.06;;;8.38;100.00
55217;BME280;41086;46.736;15.666;2022-11-15T11:09:32;98297.97;;;8.41;100.00
55217;BME280;41086;46.736;15.666;2022-11-15T11:12:00;98296.09;;;8.43;100.00
55217;BME280;41086;46.736;15.666;2022-11-15T11:22:19;98285.34;;;8.46;100.00
55217;BME280;41086;46.736;15.666;2022-11-15T11:31:04;98275.13;;;8.54;100.00
55217;BME280;41086;46.736;15.666;2022-11-15T11:36:19;98257.41;;;8.56;100.00
55217;BME280;41086;46.736;15.666;2022-11-15T11:39:18;98258.06;;;8.60;100.00
55217;BME280;41086;46.736;15.666;2022-11-15T11:41:55;98254.38;;;8.62;100.00
55217;BME280;41086;46.736;15.666;2022-11-15T11:47:49;98250.69;;;8.65;100.00
55217;BME280;41086;46.736;15.666;2022-11-15T11:50:23;98242.97;;;8.62;100.00
55217;BME280;41086;46.736;15.666;2022-11-15T11:53:05;98238.63;;;8.61;100.00
55217;BME280;41086;46.736;15.666;2022-11-15T11:55:49;98240.50;;;8.59;100.00
55217;BME280;41086;46.736;15.666;2022-11-15T11:58:38;98239.47;;;8.61;100.00
55217;BME280;41086;46.736;15.666;2022-11-15T12:03:45;98219.94;;;8.64;100.00
55217;BME280;41086;46.736;15.666;2022-11-15T12:08:56;98200.41;;;8.67;100.00
55217;BME280;41086;46.736;15.666;2022-11-15T12:14:27;98182.34;;;8.73;100.00
55217;BME280;41086;46.736;15.666;2022-11-15T12:16:57;98184.69;;;8.78;100.00
55217;BME280;41086;46.736;15.666;2022-11-15T12:19:24;98176.56;;;8.81;100.00
55217;BME280;41086;46.736;15.666;2022-11-15T12:24:37;98178.34;;;8.80;100.00
55217;BME280;41086;46.736;15.666;2022-11-15T12:27:18;98170.44;;;8.80;100.00
55217;BME280;41086;46.736;15.666;2022-11-15T12:30:04;98160.78;;;8.79;100.00
55217;BME280;41086;46.736;15.666;2022-11-15T12:32:37;98163.63;;;8.76;100.00
55217;BME280;41086;46.736;15.666;2022-11-15T12:35:23;98163.34;;;8.81;100.00
55217;BME280;41086;46.736;15.666;2022-11-15T12:37:55;98171.19;;;8.82;100.00
55217;BME280;41086;46.736;15.666;2022-11-15T12:40:31;98171.34;;;8.79;100.00
55217;BME280;41086;46.736;15.666;2022-11-15T12:45:44;98174.00;;;8.79;100.00
55217;BME280;41086;46.736;15.666;2022-11-15T12:53:28;98157.22;;;8.80;100.00
55217;BME280;41086;46.736;15.666;2022-11-15T13:01:10;98142.00;;;8.84;100.00
55217;BME280;41086;46.736;15.666;2022-11-15T13:06:53;98135.66;;;8.86;100.00
55217;BME280;41086;46.736;15.666;2022-11-15T13:12:11;98123.06;;;8.77;100.00
55217;BME280;41086;46.736;15.666;2022-11-15T13:14:58;98117.78;;;8.77;100.00
55217;BME280;41086;46.736;15.666;2022-11-15T13:17:27;98120.44;;;8.77;100.00
55217;BME280;41086;46.736;15.666;2022-11-15T13:20:15;98119.69;;;8.75;100.00
55217;BME280;41086;46.736;15.666;2022-11-15T13:26:12;98113.75;;;8.72;100.00
55217;BME280;41086;46.736;15.666;2022-11-15T13:28:47;98105.09;;;8.70;100.00
55217;BME280;41086;46.736;15.666;2022-11-15T13:31:34;98115.03;;;8.66;100.00
55217;BME280;41086;46.736;15.666;2022-11-15T13:34:31;98105.72;;;8.60;100.00
55217;BME280;41086;46.736;15.666;2022-11-15T13:39:49;98092.59;;;8.59;100.00
55217;BME280;41086;46.736;15.666;2022-11-15T13:42:20;98090.78;;;8.59;100.00
55217;BME280;41086;46.736;15.666;2022-11-15T13:44:56;98087.31;;;8.59;100.00
55217;BME280;41086;46.736;15.666;2022-11-15T13:47:25;98086.47;;;8.58;100.00
55217;BME280;41086;46.736;15.666;2022-11-15T13:49:53;98083.09;;;8.56;100.00
55217;BME280;41086;46.736;15.666;2022-11-15T13:52:30;98061.06;;;8.43;100.00
55217;BME280;41086;46.736;15.666;2022-11-15T13:55:11;98081.59;;;8.52;100.00
55217;BME280;41086;46.736;15.666;2022-11-15T14:02:54;98070.09;;;8.53;100.00
55217;BME280;41086;46.736;15.666;2022-11-15T14:05:23;98059.50;;;8.53;100.00
55217;BME280;41086;46.736;15.666;2022-11-15T14:07:59;98068.50;;;8.51;100.00
55217;BME280;41086;46.736;15.666;2022-11-15T14:10:36;98061.53;;;8.50;100.00
55217;BME280;41086;46.736;15.666;2022-11-15T14:13:28;98052.84;;;8.48;100.00
55217;BME280;41086;46.736;15.666;2022-11-15T14:16:18;98060.97;;;8.45;100.00
55217;BME280;41086;46.736;15.666;2022-11-15T14:18:48;98050.50;;;8.43;100.00
55217;BME280;41086;46.736;15.666;2022-11-15T14:21:16;98045.69;;;8.35;100.00
55217;BME280;41086;46.736;15.666;2022-11-15T14:23:43;98040.16;;;8.40;100.00
55217;BME280;41086;46.736;15.666;2022-11-15T14:26:34;98036.94;;;8.35;100.00
55217;BME280;41086;46.736;15.666;2022-11-15T14:29:26;98047.41;;;8.36;100.00
55217;BME280;41086;46.736;15.666;2022-11-15T14:32:10;98032.06;;;8.29;100.00
55217;BME280;41086;46.736;15.666;2022-11-15T14:34:38;98040.75;;;8.31;100.00
55217;BME280;41086;46.736;15.666;2022-11-15T14:37:12;98026.88;;;8.27;100.00
55217;BME280;41086;46.736;15.666;2022-11-15T14:39:42;98025.97;;;8.28;100.00
55217;BME280;41086;46.736;15.666;2022-11-15T14:42:09;98027.72;;;8.28;100.00
55217;BME280;41086;46.736;15.666;2022-11-15T14:44:36;98026.03;;;8.27;100.00
55217;BME280;41086;46.736;15.666;2022-11-15T14:47:07;98010.19;;;8.27;100.00
55217;BME280;41086;46.736;15.666;2022-11-15T14:49:34;98016.31;;;8.27;100.00
55217;BME280;41086;46.736;15.666;2022-11-15T14:52:01;98013.59;;;8.29;100.00
55217;BME280;41086;46.736;15.666;2022-11-15T14:54:27;98005.75;;;8.27;100.00
55217;BME280;41086;46.736;15.666;2022-11-15T14:56:54;98001.44;;;8.26;100.00
55217;BME280;41086;46.736;15.666;2022-11-15T14:59:21;98004.84;;;8.28;100.00
55217;BME280;41086;46.736;15.666;2022-11-15T15:01:48;97989.00;;;8.28;100.00
55217;BME280;41086;46.736;15.666;2022-11-15T15:04:14;97989.72;;;8.30;100.00
55217;BME280;41086;46.736;15.666;2022-11-15T15:06:41;97985.41;;;8.29;100.00
55217;BME280;41086;46.736;15.666;2022-11-15T15:09:08;97993.53;;;8.26;100.00
55217;BME280;41086;46.736;15.666;2022-11-15T15:11:35;97991.72;;;8.27;100.00
55217;BME280;41086;46.736;15.666;2022-11-15T15:14:01;97990.97;;;8.25;100.00
55217;BME280;41086;46.736;15.666;2022-11-15T15:16:28;97980.63;;;8.21;100.00
55217;BME280;41086;46.736;15.666;2022-11-15T15:18:55;97972.91;;;8.18;100.00
55217;BME280;41086;46.736;15.666;2022-11-15T15:21:26;97974.59;;;8.19;100.00
55217;BME280;41086;46.736;15.666;2022-11-15T15:24:02;97964.03;;;8.19;100.00
55217;BME280;41086;46.736;15.666;2022-11-15T15:26:29;97966.59;;;8.21;100.00
55217;BME280;41086;46.736;15.666;2022-11-15T15:29:00;97961.31;;;8.21;100.00
55217;BME280;41086;46.736;15.666;2022-11-15T15:31:26;97966.50;;;8.23;100.00
55217;BME280;41086;46.736;15.666;2022-11-15T15:33:53;97956.88;;;8.21;100.00
55217;BME280;41086;46.736;15.666;2022-11-15T15:36:20;97958.66;;;8.21;100.00
55217;BME280;41086;46.736;15.666;2022-11-15T15:38:47;97951.72;;;8.20;100.00
55217;BME280;41086;46.736;15.666;2022-11-15T15:41:15;97950.13;;;8.17;100.00
55217;BME280;41086;46.736;15.666;2022-11-15T15:43:42;97956.88;;;8.21;100.00
55217;BME280;41086;46.736;15.666;2022-11-15T15:46:12;97943.66;;;8.21;100.00
55217;BME280;41086;46.736;15.666;2022-11-15T15:48:40;97944.50;;;8.22;100.00
55217;BME280;41086;46.736;15.666;2022-11-15T15:51:07;97942.81;;;8.21;100.00